Time;durP1;ratioP1;P1;durP2;ratioP2;P2;SDS_P1;SDS_P2;PMS_P1;PMS_P2;Temp;Humidity;BMP_temperature;BMP_pressure;BME280_temperature;BME280_humidity;BME280_pressure;Samples;Min_cycle;Max_cycle;Signal;HPM_P1;HPM_P2
2023/07/17 06:13:27;;;;;;;;;;;;;;;;;;6280936;22;20364;-89
2023/07/17 06:15:52;;;;;;;;;;;;;;;;;;6284963;22;19911;-88
2023/07/17 09:04:51;;;;;;;;;;;;;;;;;;6251314;22;19912;-86
2023/07/17 09:07:16;;;;;;;;;;;;;;;;;;6247829;22;19911;-86
2023/07/17 09:09:41;;;;;;;;;;;;;;;;;;6243845;23;19918;-86
2023/07/17 09:12:08;;;;;;;;;;;;;;;;;;6217288;23;19908;-90
2023/07/17 09:14:33;;;;;;;;;;;;;;;;;;6218168;23;19918;-87
2023/07/17 09:17:00;;;;;;;;;;;;;;;;;;6217500;23;19907;-84
2023/07/17 09:19:27;;;;;;;;;;;;;;;;;;6216642;23;19954;-85
2023/07/17 09:21:57;;;;;;;;;;;;;;;;;;6217681;23;20370;-85
2023/07/17 09:24:22;;;;;;;;;;;;;;;;;;6217535;23;19907;-87
2023/07/17 09:26:54;;;;;;;;;;;;;;;;;;6216950;23;19919;-88
2023/07/17 09:29:24;;;;;;;;;;;;;;;;;;6217161;23;19940;-89
2023/07/17 09:31:49;;;;;;;;;;;;;;;;;;6217130;23;20354;-89
2023/07/17 09:34:15;;;;;;;;;;;;;;;;;;6217281;23;19908;-89
2023/07/17 09:36:41;;;;;;;;;;;;;;;;;;6217301;23;19912;-88
2023/07/17 09:39:07;;;;;;;;;;;;;;;;;;6217118;23;20239;-89
2023/07/17 09:41:34;;;;;;;;;;;;;;;;;;6217010;23;19939;-89
2023/07/17 09:44:01;;;;;;;;;;;;;;;;;;6218291;23;19915;-89
2023/07/17 09:46:26;;;;;;;;;;;;;;;;;;6219658;23;19907;-92
2023/07/17 09:48:53;;;;;;;;;;;;;;;;;;6219485;23;19908;-90
2023/07/17 09:51:19;;;;;;;;;;;;;;;;;;6218419;23;19911;-89
2023/07/17 09:53:45;;;;;;;;;;;;;;;;;;6220642;23;19914;-89
2023/07/17 09:56:12;;;;;;;;;;;;;;;;;;6218187;23;19931;-88
2023/07/17 09:58:41;;;;;;;;;;;;;;;;;;6218337;23;20220;-90
2023/07/17 10:01:08;;;;;;;;;;;;;;;;;;6219342;23;19962;-94
2023/07/17 10:03:34;;;;;;;;;;;;;;;;;;6223416;23;20228;-94
2023/07/17 10:06:00;;;;;;;;;;;;;;;;;;6221785;23;20380;-94
2023/07/17 10:08:28;;;;;;;;;;;;;;;;;;6197275;23;19919;-92
2023/07/17 10:10:53;;;;;;;;;;;;;;;;;;6249203;22;19912;-95
2023/07/17 10:13:18;;;;;;;;;;;;;;;;;;6223019;23;19911;-90
2023/07/17 10:15:44;;;;;;;;;;;;;;;;;;6250067;23;19907;-94
2023/07/17 10:18:12;;;;;;;;;;;;;;;;;;6225313;23;19915;-93
2023/07/17 10:20:38;;;;;;;;;;;;;;;;;;6250099;22;19903;-94
2023/07/17 10:23:05;;;;;;;;;;;;;;;;;;6249175;23;19995;-89
2023/07/17 10:25:31;;;;;;;;;;;;;;;;;;6248096;23;19965;-89
2023/07/17 10:27:58;;;;;;;;;;;;;;;;;;6248338;23;19912;-89
2023/07/17 10:30:24;;;;;;;;;;;;;;;;;;6221418;23;19911;-90
2023/07/17 10:32:51;;;;;;;;;;;;;;;;;;6248561;23;20311;-88
2023/07/17 10:35:19;;;;;;;;;;;;;;;;;;6248529;23;19907;-87
2023/07/17 10:37:45;;;;;;;;;;;;;;;;;;6249721;23;19903;-87
2023/07/17 10:40:27;;;;;;;;;;;;;;;;;;6250386;22;19914;-89
2023/07/17 10:42:52;;;;;;;;;;;;;;;;;;6248255;23;19908;-88
2023/07/17 10:45:18;;;;;;;;;;;;;;;;;;6224483;23;19935;-94
2023/07/17 10:47:47;;;;;;;;;;;;;;;;;;6224705;23;20323;-92
2023/07/17 10:50:13;;;;;;;;;;;;;;;;;;6223839;23;19913;-95
2023/07/17 10:52:38;;;;;;;;;;;;;;;;;;6255349;23;19908;-94
2023/07/17 10:55:04;;;;;;;;;;;;;;;;;;6250348;23;19907;-95
2023/07/17 10:57:30;;;;;;;;;;;;;;;;;;6224294;23;19911;-95
2023/07/17 10:59:56;;;;;;;;;;;;;;;;;;6249202;22;19914;-94
2023/07/17 11:02:23;;;;;;;;;;;;;;;;;;6250004;23;20322;-96
2023/07/17 11:04:52;;;;;;;;;;;;;;;;;;6223114;23;20373;-96
2023/07/17 11:07:17;;;;;;;;;;;;;;;;;;6223004;23;20319;-96
2023/07/17 11:09:44;;;;;;;;;;;;;;;;;;6222057;22;19911;-93
2023/07/17 11:12:09;;;;;;;;;;;;;;;;;;6249239;23;19960;-96
2023/07/17 11:14:35;;;;;;;;;;;;;;;;;;6224354;23;19938;-96
2023/07/17 11:17:00;;;;;;;;;;;;;;;;;;6250745;23;19915;-94
2023/07/17 11:19:26;;;;;;;;;;;;;;;;;;6249525;22;19914;-96
2023/07/17 11:21:51;;;;;;;;;;;;;;;;;;6222935;23;19982;-94
2023/07/17 11:24:17;;;;;;;;;;;;;;;;;;6197161;23;19912;-95
2023/07/17 11:26:43;;;;;;;;;;;;;;;;;;6248587;23;19914;-94
2023/07/17 11:29:08;;;;;;;;;;;;;;;;;;6221456;23;19908;-94
2023/07/17 11:31:34;;;;;;;;;;;;;;;;;;6249976;22;20207;-88
2023/07/17 11:34:04;;;;;;;;;;;;;;;;;;6247741;23;19907;-90
2023/07/17 11:36:31;;;;;;;;;;;;;;;;;;6247760;23;19908;-89
2023/07/17 11:38:57;;;;;;;;;;;;;;;;;;6247583;23;19908;-90
2023/07/17 11:41:23;;;;;;;;;;;;;;;;;;6220830;23;20220;-91
2023/07/17 11:43:55;;;;;;;;;;;;;;;;;;6220897;23;19973;-91
2023/07/17 11:46:20;;;;;;;;;;;;;;;;;;6248000;23;19907;-92
2023/07/17 16:45:52;;;;;;;;;;;;;;;;;;6307223;22;20378;-91
2023/07/17 16:48:18;;;;;;;;;;;;;;;;;;6308277;22;20373;-94
2023/07/17 16:50:44;;;;;;;;;;;;;;;;;;6307603;22;19953;-90
2023/07/17 16:53:09;;;;;;;;;;;;;;;;;;6294842;22;20229;-90
2023/07/17 16:55:34;;;;;;;;;;;;;;;;;;6279658;22;19959;-90
2023/07/17 16:58:00;;;;;;;;;;;;;;;;;;6280539;22;19907;-90
2023/07/17 17:00:25;;;;;;;;;;;;;;;;;;6277524;22;19937;-92
2023/07/17 17:02:50;;;;;;;;;;;;;;;;;;6279100;22;19907;-94
2023/07/17 17:05:16;;;;;;;;;;;;;;;;;;6277076;22;19990;-92
2023/07/17 17:07:41;;;;;;;;;;;;;;;;;;6279050;22;19907;-89
2023/07/17 17:10:07;;;;;;;;;;;;;;;;;;6278277;22;19907;-92
2023/07/17 17:12:32;;;;;;;;;;;;;;;;;;6277716;22;20334;-90
2023/07/17 17:14:57;;;;;;;;;;;;;;;;;;6278467;22;19930;-95
2023/07/17 17:17:23;;;;;;;;;;;;;;;;;;6276921;22;20028;-88
2023/07/17 17:19:48;;;;;;;;;;;;;;;;;;6279033;22;19933;-86
2023/07/17 17:22:16;;;;;;;;;;;;;;;;;;6279495;22;20289;-90
2023/07/17 17:24:41;;;;;;;;;;;;;;;;;;6278357;22;19968;-90
2023/07/17 17:27:06;;;;;;;;;;;;;;;;;;6277681;22;19907;-90
2023/07/17 17:29:35;;;;;;;;;;;;;;;;;;6277542;22;20028;-88
2023/07/17 17:32:00;;;;;;;;;;;;;;;;;;6277937;22;19911;-88
2023/07/17 17:34:25;;;;;;;;;;;;;;;;;;6277932;22;19930;-89
2023/07/17 17:36:51;;;;;;;;;;;;;;;;;;6277615;22;19913;-88
2023/07/17 17:39:17;;;;;;;;;;;;;;;;;;6280507;22;19935;-91
2023/07/17 17:41:43;;;;;;;;;;;;;;;;;;6283197;22;19914;-89
2023/07/17 17:44:08;;;;;;;;;;;;;;;;;;6278556;22;20226;-87
2023/07/17 17:46:34;;;;;;;;;;;;;;;;;;6279545;22;19925;-89
2023/07/17 17:48:59;;;;;;;;;;;;;;;;;;6277327;22;19947;-87
2023/07/17 17:51:24;;;;;;;;;;;;;;;;;;6277680;22;19950;-88
2023/07/17 17:53:50;;;;;;;;;;;;;;;;;;6277172;22;19907;-87
2023/07/17 17:56:15;;;;;;;;;;;;;;;;;;6276589;22;19922;-87
2023/07/17 17:58:41;;;;;;;;;;;;;;;;;;6279768;22;19914;-90
2023/07/17 18:01:06;;;;;;;;;;;;;;;;;;6278692;22;19930;-87
2023/07/17 18:03:32;;;;;;;;;;;;;;;;;;6277909;22;19907;-87
2023/07/17 18:05:57;;;;;;;;;;;;;;;;;;6279229;22;20365;-87
2023/07/17 18:08:23;;;;;;;;;;;;;;;;;;6278948;22;19949;-86
2023/07/17 18:10:48;;;;;;;;;;;;;;;;;;6279553;22;19994;-85
2023/07/17 18:13:13;;;;;;;;;;;;;;;;;;6279067;22;19907;-85
2023/07/17 18:15:39;;;;;;;;;;;;;;;;;;6279287;22;19907;-84
2023/07/17 18:18:04;;;;;;;;;;;;;;;;;;6279041;22;19914;-85
2023/07/17 18:20:30;;;;;;;;;;;;;;;;;;6279389;22;19981;-86
2023/07/17 18:22:55;;;;;;;;;;;;;;;;;;6279011;22;19914;-85
2023/07/17 18:25:20;;;;;;;;;;;;;;;;;;6279315;22;19974;-86
2023/07/17 18:27:46;;;;;;;;;;;;;;;;;;6278889;22;19907;-85
2023/07/17 18:30:12;;;;;;;;;;;;;;;;;;6279598;22;19934;-85
2023/07/17 18:32:37;;;;;;;;;;;;;;;;;;6279022;22;19907;-86
2023/07/17 18:35:04;;;;;;;;;;;;;;;;;;6278822;22;19914;-86
2023/07/17 18:37:30;;;;;;;;;;;;;;;;;;6279089;22;19907;-86
2023/07/17 18:39:55;;;;;;;;;;;;;;;;;;6278990;22;19949;-85
2023/07/17 18:42:20;;;;;;;;;;;;;;;;;;6278147;22;19985;-85
2023/07/17 18:44:46;;;;;;;;;;;;;;;;;;6278480;22;19907;-85
2023/07/17 18:47:11;;;;;;;;;;;;;;;;;;6278597;22;20229;-85
2023/07/17 18:49:37;;;;;;;;;;;;;;;;;;6279103;22;20274;-85
2023/07/17 18:52:02;;;;;;;;;;;;;;;;;;6278691;22;19981;-85
2023/07/17 18:54:28;;;;;;;;;;;;;;;;;;6278854;22;19926;-84
2023/07/17 18:56:53;;;;;;;;;;;;;;;;;;6278836;22;19914;-85
2023/07/17 18:59:19;;;;;;;;;;;;;;;;;;6278874;22;19907;-84
2023/07/17 19:01:45;;;;;;;;;;;;;;;;;;6279039;22;20242;-84
2023/07/17 19:04:11;;;;;;;;;;;;;;;;;;6278472;22;19907;-85
2023/07/17 19:06:37;;;;;;;;;;;;;;;;;;6279152;22;19907;-84
2023/07/17 19:09:02;;;;;;;;;;;;;;;;;;6278608;22;19907;-84
2023/07/17 19:11:27;;;;;;;;;;;;;;;;;;6278352;22;19907;-85
2023/07/17 19:13:53;;;;;;;;;;;;;;;;;;6278432;22;20336;-84
2023/07/17 19:16:20;;;;;;;;;;;;;;;;;;6278618;22;19907;-84
2023/07/17 19:18:45;;;;;;;;;;;;;;;;;;6278535;22;19922;-84
2023/07/17 19:21:10;;;;;;;;;;;;;;;;;;6278439;22;19907;-84
2023/07/17 19:23:36;;;;;;;;;;;;;;;;;;6278270;22;19907;-85
2023/07/17 19:26:02;;;;;;;;;;;;;;;;;;6278507;22;19907;-84
2023/07/17 19:28:28;;;;;;;;;;;;;;;;;;6278356;22;19961;-85
2023/07/17 19:30:53;;;;;;;;;;;;;;;;;;6280288;22;19907;-85
2023/07/17 19:33:18;;;;;;;;;;;;;;;;;;6279493;22;19945;-85
2023/07/17 19:35:44;;;;;;;;;;;;;;;;;;6280228;22;20075;-85
2023/07/17 19:38:09;;;;;;;;;;;;;;;;;;6278621;22;19993;-85
2023/07/17 19:40:35;;;;;;;;;;;;;;;;;;6278921;22;19907;-86
2023/07/17 19:43:00;;;;;;;;;;;;;;;;;;6278660;22;19907;-86
2023/07/17 19:45:26;;;;;;;;;;;;;;;;;;6279233;22;19915;-86
2023/07/17 19:47:51;;;;;;;;;;;;;;;;;;6277963;22;19911;-86
2023/07/17 19:50:17;;;;;;;;;;;;;;;;;;6278514;22;19986;-86
2023/07/17 19:52:43;;;;;;;;;;;;;;;;;;6278439;22;19907;-86
2023/07/17 19:55:08;;;;;;;;;;;;;;;;;;6278439;22;19911;-86
2023/07/17 19:57:34;;;;;;;;;;;;;;;;;;6278914;22;19947;-87
2023/07/17 19:59:59;;;;;;;;;;;;;;;;;;6278817;22;19977;-87
2023/07/17 20:02:25;;;;;;;;;;;;;;;;;;6278802;22;20211;-87
2023/07/17 20:04:51;;;;;;;;;;;;;;;;;;6276963;22;19907;-87
2023/07/17 20:07:17;;;;;;;;;;;;;;;;;;6278363;22;19914;-87
2023/07/17 20:09:42;;;;;;;;;;;;;;;;;;6278330;22;19914;-90
2023/07/17 20:12:08;;;;;;;;;;;;;;;;;;6278609;22;19907;-85
2023/07/17 20:14:34;;;;;;;;;;;;;;;;;;6278067;22;20337;-86
2023/07/17 20:16:59;;;;;;;;;;;;;;;;;;6276756;22;19954;-88
2023/07/17 20:19:24;;;;;;;;;;;;;;;;;;6278727;22;19966;-88
2023/07/17 20:21:50;;;;;;;;;;;;;;;;;;6277197;22;19907;-86
2023/07/17 20:24:15;;;;;;;;;;;;;;;;;;6278343;22;19907;-86
2023/07/17 20:26:40;;;;;;;;;;;;;;;;;;6278253;22;19907;-87
2023/07/17 20:29:05;;;;;;;;;;;;;;;;;;6278720;22;19907;-87
2023/07/17 20:31:31;;;;;;;;;;;;;;;;;;6278376;22;19907;-86
2023/07/17 20:33:56;;;;;;;;;;;;;;;;;;6278383;22;19903;-86
2023/07/17 20:36:21;;;;;;;;;;;;;;;;;;6278594;22;19907;-88
2023/07/17 20:38:47;;;;;;;;;;;;;;;;;;6278129;22;20332;-86
2023/07/17 20:41:13;;;;;;;;;;;;;;;;;;6277944;22;20318;-86
2023/07/17 20:43:38;;;;;;;;;;;;;;;;;;6277903;22;19914;-86
2023/07/17 20:46:04;;;;;;;;;;;;;;;;;;6277691;22;19911;-85
2023/07/17 20:48:30;;;;;;;;;;;;;;;;;;6278059;22;20324;-85
2023/07/17 20:51:10;;;;;;;;;;;;;;;;;;6277738;22;19911;-85
2023/07/17 20:53:36;;;;;;;;;;;;;;;;;;6277587;22;19907;-86
2023/07/17 20:56:02;;;;;;;;;;;;;;;;;;6278055;22;19907;-86
2023/07/17 20:58:28;;;;;;;;;;;;;;;;;;6276034;22;19918;-86
2023/07/17 21:00:58;;;;;;;;;;;;;;;;;;6278102;22;20310;-86
2023/07/17 21:03:24;;;;;;;;;;;;;;;;;;6277922;22;19907;-86
2023/07/17 21:05:49;;;;;;;;;;;;;;;;;;6277723;22;20028;-86
2023/07/17 21:08:16;;;;;;;;;;;;;;;;;;6277552;22;19911;-85
2023/07/17 21:10:41;;;;;;;;;;;;;;;;;;6278096;22;19911;-86
2023/07/17 21:13:06;;;;;;;;;;;;;;;;;;6277783;22;19946;-85
2023/07/17 21:15:32;;;;;;;;;;;;;;;;;;6278638;22;19915;-86
2023/07/17 21:17:57;;;;;;;;;;;;;;;;;;6277558;22;20310;-86
2023/07/17 21:20:22;;;;;;;;;;;;;;;;;;6277784;22;19908;-85
2023/07/17 21:22:48;;;;;;;;;;;;;;;;;;6277336;22;19957;-86
2023/07/17 21:25:13;;;;;;;;;;;;;;;;;;6277751;22;19907;-86
